Flight Track Log - Related Links

Times and Time Zones

All times are in EDT time to prevent confusion due to time zone crossing. See the N421KS flight status page for this flight to view local times or setup timezone preferences in your user account.

Time Position Orientation Groundspeed Altitude Reporting Facility
EDT Latitude Longitude Course Direction KTS MPH feet Rate Location/Type
Fri 06:54:00 AM 43.9371 -70.1033 32° Northeast  Level Estimated
Fri 06:55:00 AM 43.9823 -70.0610 34° Northeast  Level FlightAware Approximate
Fri 06:56:00 AM 44.0274 -70.0185 34° Northeast  Level FlightAware Approximate
Fri 06:57:00 AM 44.0725 -69.9760 34° Northeast  Level FlightAware Approximate
Fri 06:58:00 AM 44.1112 -69.9320 39° Northeast  Level FlightAware Approximate
Fri 06:59:00 AM 44.1498 -69.8878 39° Northeast  Level FlightAware Approximate
Fri 07:00:00 AM 44.1884 -69.8436 39° Northeast  Level FlightAware Approximate
Fri 07:01:00 AM 44.2270 -69.7993 39° Northeast  Level FlightAware Approximate
Fri 07:02:00 AM 44.2656 -69.7550 39° Northeast  Level FlightAware Approximate
Fri 07:03:00 AM 44.3042 -69.7106 39° Northeast  Level FlightAware Approximate
Fri 07:04:00 AM 44.3427 -69.6662 40° Northeast  Level FlightAware Approximate
Fri 07:05:00 AM 44.3812 -69.6217 40° Northeast  Level FlightAware Approximate
Fri 07:06:00 AM 44.3399 -69.6609 25° Northeast  Level Estimated
Fri 07:07:00 AM 44.3847 -69.6301 26° Northeast  Level FlightAware Approximate
Fri 07:08:00 AM 44.4296 -69.5993 26° Northeast  Level FlightAware Approximate
Fri 07:09:00 AM 44.4744 -69.5685 26° Northeast  Level FlightAware Approximate
Fri 07:10:00 AM 44.5193 -69.5376 26° Northeast  Level FlightAware Approximate
Fri 07:11:00 AM 44.5641 -69.5066 26° Northeast  Level FlightAware Approximate
Fri 07:12:00 AM 44.6089 -69.4756 26° Northeast  Level FlightAware Approximate
Fri 07:13:00 AM 44.6537 -69.4446 26° Northeast  Level FlightAware Approximate
Fri 07:14:00 AM 44.6985 -69.4135 26° Northeast  Level FlightAware Approximate
Fri 07:15:00 AM 44.7433 -69.3824 26° Northeast  Level FlightAware Approximate
Fri 07:16:00 AM 44.7881 -69.3512 26° Northeast  Level FlightAware Approximate
Fri 07:17:00 AM 44.8329 -69.3200 26° Northeast  Level FlightAware Approximate
Fri 07:18:00 AM 44.8777 -69.2887 26° Northeast  Level FlightAware Approximate
Fri 07:19:00 AM 44.9224 -69.2573 26° Northeast  Level FlightAware Approximate
Fri 07:20:00 AM 44.9672 -69.2260 26° Northeast  Level FlightAware Approximate
Fri 07:20:58 AM 44.9722 -69.3561 26° Northeast 192 221 8,900  Level Boston Center
Fri 07:21:00 AM 45.0119 -69.1945 26° Northeast  Level FlightAware Approximate
Fri 07:21:56 AM 45.0194 -69.3244 25° Northeast 192 221 8,900  Level Boston Center
Fri 07:22:00 AM 45.0566 -69.1631 26° Northeast  Level FlightAware Approximate
Fri 07:22:56 AM 45.0644 -69.2925 27° Northeast 192 221 9,000  Level Boston Center
Fri 07:23:00 AM 45.1014 -69.1315 26° Northeast  Level FlightAware Approximate
Fri 07:23:57 AM 45.1094 -69.2606 27° Northeast 187 215 9,000  Level Boston Center
Fri 07:24:00 AM 45.0583 -69.1674 26° Northeast  Level Estimated
Fri 07:24:58 AM 45.1564 -69.2258 28° Northeast 187 215 8,900  Level Boston Center
Fri 07:25:00 AM 45.1031 -69.1361 26° Northeast  Level FlightAware Approximate
Fri 07:25:56 AM 45.2014 -69.1967 25° Northeast 182 209 9,000  Level Boston Center
Fri 07:26:00 AM 45.1479 -69.1048 26° Northeast  Level FlightAware Approximate
Fri 07:26:56 AM 45.2483 -69.1644 26° Northeast 182 209 8,900  Level Boston Center
Fri 07:27:56 AM 45.2933 -69.1325 27° Northeast 182 209 8,900  Level Boston Center
Fri 07:28:58 AM 45.3358 -69.0947 32° Northeast 177 204 8,900  Level Boston Center
Fri 07:29:57 AM 45.3808 -69.0594 29° Northeast 177 204 8,900  Level Boston Center
Fri 07:30:58 AM 45.4256 -69.0214 31° Northeast 177 204 8,900  Level Boston Center
Fri 07:31:58 AM 45.4639 -68.9867 32° Northeast 177 204 8,900  Level Boston Center
Fri 07:32:57 AM 45.5067 -68.9544 28° Northeast 177 204 8,900 51 Level Boston Center
Fri 07:33:55 AM 45.5514 -68.9161 31° Northeast 177 204 9,000  Climbing Boston Center
Fri 07:34:57 AM 45.5961 -68.8778 31° Northeast 177 204 8,900  Descending Boston Center
Fri 07:35:58 AM 45.6389 -68.8425 30° Northeast 177 204 9,000  Climbing Boston Center
Fri 07:36:56 AM 45.6833 -68.8039 31° Northeast 177 204 8,900 -50 Descending Boston Center
Fri 07:37:58 AM 45.7303 -68.7711 26° Northeast 177 204 8,900  Level Boston Center
Fri 07:38:56 AM 45.7811 -68.7322 28° Northeast 183 211 8,900 -150 Level Boston Center
Fri 07:39:58 AM 45.8258 -68.6936 31° Northeast 183 211 8,600 -303 Descending Boston Center
Fri 07:40:55 AM 45.8744 -68.6544 29° Northeast 178 205 8,300 -252 Descending Boston Center
Fri 07:41:57 AM 45.9192 -68.6189 29° Northeast 178 205 8,100 -295 Descending Boston Center
Fri 07:42:57 AM 45.9658 -68.5797 30° Northeast 178 205 7,700 -347 Descending Boston Center
Fri 07:43:58 AM 46.0125 -68.5467 26° Northeast 183 211 7,400 -298 Descending Boston Center
Fri 07:44:58 AM 46.0594 -68.5106 28° Northeast 183 211 7,100 -353 Descending Boston Center
Fri 07:45:57 AM 46.1036 -68.4686 33° Northeast 183 211 6,700 -462 Descending Boston Center
Fri 07:46:55 AM 46.1503 -68.4325 28° Northeast 178 205 6,200 -504 Descending Boston Center
Fri 07:47:56 AM 46.1950 -68.3992 27° Northeast 178 205 5,700 -446 Descending Boston Center
Fri 07:48:56 AM 46.2397 -68.3661 27° Northeast 178 205 5,300 -446 Descending Boston Center
Fri 07:49:57 AM 46.2864 -68.3325 26° Northeast 178 205 4,800 -393 Descending Boston Center
Fri 07:50:58 AM 46.3311 -68.2992 27° Northeast 178 205 4,500 -347 Descending Boston Center
Fri 07:51:58 AM 46.3800 -68.2686 23° Northeast 178 205 4,100 -356 Descending Boston Center
Fri 07:52:56 AM 46.4247 -68.2350 27° Northeast 178 205 3,800 -254 Descending Boston Center
Fri 07:53:56 AM 46.4694 -68.2047 25° Northeast 172 198 3,600 -200 Descending Boston Center
Fri 07:55:00 AM 46.5095 -68.1583 39° Northeast  Level FlightAware Approximate
Fri 08:04:00 AM 46.6833 -68.0333 25° Northeast  Level FlightAware Approximate
Fri 08:05:00 AM 46.6411 -68.0669 25° Northeast  Level Estimated
Fri 08:06:00 AM 46.6833 -68.0333 25° Northeast  Level FlightAware Approximate
Fri 08:07:00 AM 46.6411 -68.0669 25° Northeast  Level Estimated
Fri 08:08:00 AM 46.6833 -68.0333 25° Northeast  Level FlightAware Approximate
Fri 08:09:00 AM 46.6411 -68.0669 25° Northeast  Level Estimated
Fri 08:10:00 AM 46.6833 -68.0333 25° Northeast  Level FlightAware Approximate
Fri 08:11:00 AM 46.6411 -68.0669 25° Northeast  Level Estimated
Fri 08:12:00 AM 46.6833 -68.0333 25° Northeast  Level FlightAware Approximate
Fri 08:13:00 AM 46.6411 -68.0669 25° Northeast  Level Estimated
Fri 08:14:00 AM 46.6833 -68.0333 25° Northeast  Level FlightAware Approximate
Fri 08:15:00 AM 46.6411 -68.0669 25° Northeast  Level Estimated
Fri 08:16:00 AM 46.6833 -68.0333 25° Northeast  Level FlightAware Approximate

Login

Don't have an account? Register now (free) for customized features, flight alerts, and more!